createdAt,value
2023-11-06T00:01:21.222Z,2.80
2023-11-06T00:03:51.864Z,2.35
2023-11-06T00:06:21.106Z,2.33
2023-11-06T00:08:51.654Z,2.28
2023-11-06T00:11:20.979Z,1.73
2023-11-06T00:13:50.213Z,2.30
2023-11-06T00:16:26.649Z,2.60
2023-11-06T00:18:58.662Z,1.92
2023-11-06T00:21:28.923Z,2.30
2023-11-06T00:23:59.671Z,2.67
2023-11-06T00:26:29.618Z,2.40
2023-11-06T00:28:59.267Z,2.55
2023-11-06T00:31:28.735Z,2.25
2023-11-06T00:33:58.255Z,2.40
2023-11-06T00:36:27.485Z,2.13
2023-11-06T00:38:56.630Z,2.15
2023-11-06T00:41:27.268Z,2.20
2023-11-06T00:43:57.009Z,1.65
2023-11-06T00:46:26.374Z,2.30
2023-11-06T00:48:55.607Z,3.30
2023-11-06T00:51:24.808Z,2.17
2023-11-06T00:53:54.027Z,2.55
2023-11-06T00:56:23.337Z,1.90
2023-11-06T00:58:54.177Z,1.88
2023-11-06T01:01:23.490Z,2.10
2023-11-06T01:03:53.348Z,1.80
2023-11-06T01:06:23.178Z,2.00
2023-11-06T01:08:52.351Z,1.77
2023-11-06T01:11:21.633Z,2.28
2023-11-06T01:13:51.212Z,1.95
2023-11-06T01:16:21.992Z,1.58
2023-11-06T01:18:51.342Z,2.17
2023-11-06T01:21:20.848Z,1.88
2023-11-06T01:23:50.028Z,1.75
2023-11-06T01:26:19.327Z,1.63
2023-11-06T01:28:48.561Z,2.17
2023-11-06T01:31:18.739Z,1.63
2023-11-06T01:33:49.357Z,1.85
2023-11-06T01:36:20.556Z,1.70
2023-11-06T01:38:49.788Z,2.05
2023-11-06T01:41:19.156Z,2.10
2023-11-06T01:43:48.565Z,1.52
2023-11-06T01:46:18.005Z,1.98
2023-11-06T01:48:49.074Z,1.83
2023-11-06T01:51:19.057Z,1.38
2023-11-06T01:53:49.287Z,1.65
2023-11-06T01:56:19.642Z,1.85
2023-11-06T01:58:49.897Z,1.60
2023-11-06T02:01:20.475Z,1.90
2023-11-06T02:03:51.568Z,1.30
2023-11-06T02:06:21.304Z,1.75
2023-11-06T02:08:50.502Z,1.77
2023-11-06T02:11:19.859Z,2.00
2023-11-06T02:13:49.010Z,1.85
2023-11-06T02:16:18.344Z,1.75
2023-11-06T02:18:47.612Z,1.70
2023-11-06T02:21:18.264Z,1.75
2023-11-06T02:23:50.447Z,2.72
2023-11-06T02:26:19.756Z,2.22
2023-11-06T02:28:53.899Z,2.00
2023-11-06T02:31:23.248Z,1.80
2023-11-06T02:33:52.537Z,1.73
2023-11-06T02:36:21.841Z,1.70
2023-11-06T02:38:52.508Z,1.73
2023-11-06T02:41:21.781Z,1.30
2023-11-06T02:43:51.055Z,1.58
2023-11-06T02:46:20.225Z,1.50
2023-11-06T02:48:49.502Z,1.05
2023-11-06T02:51:19.228Z,1.60
2023-11-06T02:53:49.325Z,1.38
2023-11-06T02:56:20.449Z,1.52
2023-11-06T02:58:49.797Z,1.80
2023-11-06T03:01:20.476Z,0.90
2023-11-06T03:03:50.019Z,2.40
2023-11-06T03:06:19.230Z,1.55
2023-11-06T03:08:48.388Z,1.40
2023-11-06T03:11:18.119Z,1.60
2023-11-06T03:13:49.089Z,2.47
2023-11-06T03:16:18.475Z,1.70
2023-11-06T03:18:47.710Z,2.15
2023-11-06T03:21:17.073Z,2.30
2023-11-06T03:23:46.812Z,1.67
2023-11-06T03:26:16.710Z,2.60
2023-11-06T03:28:47.454Z,1.40
2023-11-06T03:31:17.044Z,1.52
2023-11-06T03:33:46.445Z,1.52
2023-11-06T03:36:15.728Z,1.63
2023-11-06T03:38:44.913Z,1.75
2023-11-06T03:41:14.315Z,2.03
2023-11-06T03:43:44.159Z,1.58
2023-11-06T03:46:15.603Z,1.15
2023-11-06T03:48:44.814Z,1.15
2023-11-06T03:51:14.007Z,1.23
2023-11-06T03:53:43.382Z,1.45
2023-11-06T03:56:12.557Z,1.05
2023-11-06T03:58:41.885Z,1.20
2023-11-06T04:01:11.192Z,0.70
2023-11-06T04:03:42.228Z,1.55
2023-11-06T04:06:11.534Z,0.98
2023-11-06T04:08:40.707Z,1.10
2023-11-06T04:11:10.402Z,1.52
2023-11-06T04:13:40.878Z,1.30
2023-11-06T04:16:10.485Z,1.42
2023-11-06T04:18:41.372Z,1.45
2023-11-06T04:21:10.634Z,1.20
2023-11-06T04:23:39.740Z,1.23
2023-11-06T04:26:09.192Z,0.90
2023-11-06T04:28:38.343Z,1.00
2023-11-06T04:31:07.497Z,1.15
2023-11-06T04:33:36.769Z,1.30
2023-11-06T04:36:10.332Z,1.67
2023-11-06T04:38:39.581Z,1.20
2023-11-06T04:41:10.262Z,0.95
2023-11-06T04:43:39.474Z,1.10
2023-11-06T04:46:08.894Z,1.63
2023-11-06T04:48:38.044Z,2.00
2023-11-06T04:51:09.565Z,2.33
2023-11-06T04:53:40.136Z,1.45
2023-11-06T04:56:10.989Z,2.17
2023-11-06T04:58:40.239Z,1.10
2023-11-06T05:01:09.879Z,2.00
2023-11-06T05:03:40.403Z,1.38
2023-11-06T05:06:11.620Z,1.20
2023-11-06T05:08:40.990Z,1.65
2023-11-06T05:11:10.257Z,1.25
2023-11-06T05:13:39.513Z,1.50
2023-11-06T05:16:11.186Z,1.50
2023-11-06T05:18:40.574Z,2.03
2023-11-06T05:21:11.292Z,1.60
2023-11-06T05:23:42.611Z,2.03
2023-11-06T05:26:11.872Z,1.50
2023-11-06T05:28:41.455Z,2.15
2023-11-06T05:31:10.926Z,1.67
2023-11-06T05:33:40.744Z,1.27
2023-11-06T05:36:15.274Z,1.95
2023-11-06T05:38:45.822Z,2.05
2023-11-06T05:41:15.789Z,2.08
2023-11-06T05:43:45.391Z,1.50
2023-11-06T05:46:14.594Z,1.90
2023-11-06T05:48:43.827Z,1.40
2023-11-06T05:51:14.586Z,1.58
2023-11-06T05:53:44.002Z,2.20
2023-11-06T05:56:13.159Z,1.85
2023-11-06T05:58:42.354Z,2.00
2023-11-06T06:01:11.650Z,2.30
2023-11-06T06:03:41.346Z,2.13
2023-11-06T06:06:11.280Z,2.13
2023-11-06T06:08:42.012Z,1.70
2023-11-06T06:11:11.380Z,1.83
2023-11-06T06:13:40.560Z,1.92
2023-11-06T06:16:10.620Z,1.92
2023-11-06T06:18:39.828Z,1.90
2023-11-06T06:21:09.230Z,2.80
2023-11-06T06:23:39.731Z,1.88
2023-11-06T06:26:10.477Z,2.00
2023-11-06T06:28:39.969Z,2.50
2023-11-06T06:31:09.165Z,2.40
2023-11-06T06:33:38.458Z,2.33
2023-11-06T06:36:13.133Z,1.92
2023-11-06T06:38:42.440Z,2.58
2023-11-06T06:41:13.049Z,2.20
2023-11-06T06:43:42.267Z,2.97
2023-11-06T06:46:11.798Z,3.05
2023-11-06T06:48:41.646Z,1.73
2023-11-06T06:51:10.987Z,2.00
2023-11-06T06:53:40.351Z,1.60
2023-11-06T06:56:10.477Z,2.65
2023-11-06T06:58:41.173Z,2.13
2023-11-06T07:01:11.218Z,2.00
2023-11-06T07:03:41.087Z,2.63
2023-11-06T07:06:11.997Z,2.75
2023-11-06T07:08:41.445Z,1.92
2023-11-06T07:11:10.632Z,2.70
2023-11-06T07:13:41.269Z,3.17
2023-11-06T07:16:14.531Z,1.88
2023-11-06T07:18:43.684Z,2.20
2023-11-06T07:21:12.851Z,2.63
2023-11-06T07:23:42.117Z,2.33
2023-11-06T07:26:11.797Z,2.20
2023-11-06T07:28:42.462Z,1.70
2023-11-06T07:31:11.661Z,2.80
2023-11-06T07:33:40.893Z,2.40
2023-11-06T07:36:12.627Z,3.15
2023-11-06T07:38:41.881Z,2.33
2023-11-06T07:41:13.751Z,2.10
2023-11-06T07:43:47.266Z,2.37
2023-11-06T07:46:20.513Z,2.97
2023-11-06T07:48:50.622Z,2.50
2023-11-06T07:51:19.962Z,2.17
2023-11-06T07:53:49.281Z,2.20
2023-11-06T07:56:20.193Z,2.10
2023-11-06T07:58:50.892Z,1.90
2023-11-06T08:01:20.097Z,2.03
2023-11-06T08:03:49.654Z,1.77
2023-11-06T08:06:18.955Z,1.90
2023-11-06T08:08:48.494Z,2.08
2023-11-06T08:11:19.801Z,1.80
2023-11-06T08:13:50.463Z,2.40
2023-11-06T08:16:20.105Z,1.90
2023-11-06T08:18:49.494Z,1.83
2023-11-06T08:21:18.905Z,2.92
2023-11-06T08:23:48.093Z,1.70
2023-11-06T08:26:17.260Z,2.55
2023-11-06T08:28:46.428Z,2.85
2023-11-06T08:31:19.024Z,1.98
2023-11-06T08:33:48.419Z,1.55
2023-11-06T08:36:17.834Z,1.85
2023-11-06T08:38:47.005Z,1.33
2023-11-06T08:41:16.145Z,2.35
2023-11-06T08:43:45.292Z,1.45
2023-11-06T08:46:14.441Z,2.10
2023-11-06T08:48:45.521Z,2.20
2023-11-06T08:51:14.913Z,2.53
2023-11-06T08:53:44.262Z,2.00
2023-11-06T08:56:13.450Z,2.55
2023-11-06T08:58:42.608Z,2.03
2023-11-06T09:01:14.065Z,1.60
2023-11-06T09:06:14.903Z,1.50
2023-11-06T09:08:44.253Z,1.33
2023-11-06T09:11:13.558Z,1.35
2023-11-06T09:13:43.090Z,1.35
2023-11-06T09:16:12.423Z,1.20
2023-11-06T09:18:41.763Z,1.70
2023-11-06T09:21:14.938Z,1.95
2023-11-06T09:23:44.875Z,1.27
2023-11-06T09:26:14.444Z,1.42
2023-11-06T09:28:43.658Z,1.23
2023-11-06T09:31:12.896Z,1.60
2023-11-06T09:33:42.506Z,1.65
2023-11-06T09:36:13.365Z,1.65
2023-11-06T09:38:42.575Z,1.60
2023-11-06T09:41:13.008Z,1.38
2023-11-06T09:43:43.140Z,2.70
2023-11-06T09:46:14.996Z,2.08
2023-11-06T09:48:45.025Z,1.80
2023-11-06T09:51:18.184Z,1.38
2023-11-06T09:53:48.486Z,1.67
2023-11-06T09:56:18.183Z,1.70
2023-11-06T09:58:47.684Z,1.17
2023-11-06T10:01:16.760Z,1.65
2023-11-06T10:03:46.050Z,1.17
2023-11-06T10:06:16.828Z,1.83
2023-11-06T10:08:46.384Z,1.33
2023-11-06T10:11:24.809Z,1.65
2023-11-06T10:13:57.220Z,2.42
2023-11-06T10:16:27.721Z,1.80
2023-11-06T10:19:14.022Z,1.75
2023-11-06T10:21:45.173Z,1.45
2023-11-06T10:24:15.445Z,1.48
2023-11-06T10:26:44.807Z,2.47
2023-11-06T10:29:15.658Z,1.90
2023-11-06T10:31:46.865Z,2.25
2023-11-06T10:34:34.688Z,2.55
2023-11-06T10:37:12.178Z,1.40
2023-11-06T10:39:42.637Z,1.85
2023-11-06T10:42:12.525Z,1.48
2023-11-06T10:44:41.760Z,1.48
2023-11-06T10:47:12.332Z,1.80
2023-11-06T10:49:49.163Z,3.20
2023-11-06T10:52:22.208Z,2.15
2023-11-06T10:54:55.603Z,1.90
2023-11-06T10:57:26.344Z,2.13
2023-11-06T10:59:57.941Z,1.98
2023-11-06T11:02:45.840Z,1.75
2023-11-06T11:05:19.160Z,1.73
2023-11-06T11:07:49.690Z,2.25
2023-11-06T11:10:23.125Z,2.08
2023-11-06T11:12:54.155Z,1.58
2023-11-06T11:15:27.613Z,2.10
2023-11-06T11:18:01.626Z,1.77
2023-11-06T11:20:55.785Z,2.10
2023-11-06T11:23:42.625Z,2.10
2023-11-06T11:26:13.366Z,2.13
2023-11-06T11:28:59.210Z,2.25
2023-11-06T11:31:36.688Z,2.63
2023-11-06T11:34:08.307Z,2.25
2023-11-06T11:36:39.789Z,2.70
2023-11-06T11:39:17.479Z,1.88
2023-11-06T11:42:24.928Z,1.92
2023-11-06T11:44:54.913Z,1.80
2023-11-06T11:47:23.223Z,1.70
2023-11-06T11:49:53.346Z,1.95
2023-11-06T11:52:47.527Z,2.38
2023-11-06T11:55:36.335Z,2.15
2023-11-06T11:58:08.420Z,1.60
2023-11-06T12:00:38.735Z,2.50
2023-11-06T12:03:10.063Z,1.90
2023-11-06T12:05:40.847Z,2.05
2023-11-06T12:08:18.662Z,2.05
2023-11-06T12:10:51.327Z,1.80
2023-11-06T12:13:23.836Z,2.10
2023-11-06T12:15:54.997Z,2.10
2023-11-06T12:18:25.426Z,2.00
2023-11-06T12:20:59.193Z,3.42
2023-11-06T12:23:33.086Z,1.95
2023-11-06T12:26:12.095Z,2.60
2023-11-06T12:28:46.448Z,1.70
2023-11-06T12:31:16.152Z,2.30
2023-11-06T12:33:45.850Z,2.38
2023-11-06T12:36:28.160Z,1.92
2023-11-06T12:38:57.439Z,2.15
2023-11-06T12:41:31.667Z,2.33
2023-11-06T12:44:04.248Z,2.40
2023-11-06T12:49:50.197Z,2.17
2023-11-06T12:52:20.363Z,2.10
2023-11-06T12:54:51.433Z,2.40
2023-11-06T12:57:21.996Z,2.72
2023-11-06T12:59:52.065Z,2.60
2023-11-06T13:02:21.890Z,3.25
2023-11-06T13:04:51.006Z,3.03
2023-11-06T13:07:20.158Z,2.33
2023-11-06T13:09:49.256Z,2.47
2023-11-06T13:12:18.460Z,3.53
2023-11-06T13:14:49.655Z,2.40
2023-11-06T13:17:19.992Z,2.40
2023-11-06T13:19:49.854Z,2.25
2023-11-06T13:22:19.785Z,2.10
2023-11-06T13:24:49.118Z,1.80
2023-11-06T13:27:19.316Z,2.28
2023-11-06T13:29:49.946Z,2.30
2023-11-06T13:32:19.217Z,2.85
2023-11-06T13:34:49.810Z,3.08
2023-11-06T13:37:20.121Z,3.47
2023-11-06T13:39:50.821Z,8.30
2023-11-06T13:42:21.254Z,5.53
2023-11-06T13:44:54.370Z,5.55
2023-11-06T13:47:23.576Z,1.85
2023-11-06T13:49:52.735Z,2.47
2023-11-06T13:52:28.596Z,1.52
2023-11-06T13:54:57.826Z,2.70
2023-11-06T13:57:27.347Z,3.17
2023-11-06T13:59:58.168Z,2.40
2023-11-06T14:02:27.812Z,1.60
2023-11-06T14:04:59.417Z,2.45
2023-11-06T14:07:28.636Z,2.15
2023-11-06T14:09:57.764Z,1.98
2023-11-06T14:12:26.853Z,1.50
2023-11-06T14:14:57.593Z,2.42
2023-11-06T14:17:29.228Z,2.20
2023-11-06T14:19:59.083Z,1.90
2023-11-06T14:22:29.328Z,1.60
2023-11-06T14:24:58.639Z,1.13
2023-11-06T14:27:29.454Z,1.50
2023-11-06T14:29:59.941Z,1.10
2023-11-06T14:32:29.443Z,1.33
2023-11-06T14:34:59.902Z,1.42
2023-11-06T14:37:32.117Z,1.60
2023-11-06T14:40:01.376Z,1.98
2023-11-06T14:42:30.604Z,1.40
2023-11-06T14:45:01.109Z,1.17
2023-11-06T14:47:30.354Z,1.20
2023-11-06T14:50:05.171Z,1.33
2023-11-06T14:52:34.333Z,1.27
2023-11-06T14:55:04.140Z,1.30
2023-11-06T14:57:33.333Z,1.55
2023-11-06T15:00:05.186Z,1.30
2023-11-06T15:02:34.333Z,2.70
2023-11-06T15:05:05.631Z,2.10
2023-11-06T15:07:35.367Z,2.40
2023-11-06T15:10:05.689Z,3.40
2023-11-06T15:12:34.925Z,2.20
2023-11-06T15:15:08.745Z,3.08
2023-11-06T15:17:39.131Z,2.30
2023-11-06T15:20:09.527Z,2.80
2023-11-06T15:22:38.805Z,2.63
2023-11-06T15:25:12.936Z,2.90
2023-11-06T15:27:42.245Z,2.95
2023-11-06T15:30:14.462Z,2.80
2023-11-06T15:32:45.560Z,3.08
2023-11-06T15:35:15.486Z,2.15
2023-11-06T15:37:45.586Z,1.80
2023-11-06T15:40:16.913Z,2.45
2023-11-06T15:42:46.516Z,2.30
2023-11-06T15:45:20.972Z,2.28
2023-11-06T15:47:51.936Z,2.55
2023-11-06T15:50:21.601Z,3.58
2023-11-06T15:52:50.901Z,3.40
2023-11-06T15:55:21.964Z,3.72
2023-11-06T15:57:51.204Z,4.00
2023-11-06T16:00:23.069Z,3.42
2023-11-06T16:02:52.273Z,1.80
2023-11-06T16:05:22.297Z,2.10
2023-11-06T16:07:51.585Z,2.53
2023-11-06T16:10:20.780Z,2.60
2023-11-06T16:12:50.417Z,2.17
2023-11-06T16:15:21.441Z,2.53
2023-11-06T16:17:51.900Z,2.92
2023-11-06T16:22:53.456Z,2.70
2023-11-06T16:25:22.748Z,2.70
2023-11-06T16:27:52.502Z,6.55
2023-11-06T16:30:24.566Z,4.45
2023-11-06T16:32:54.944Z,3.90
2023-11-06T16:35:27.084Z,2.50
2023-11-06T16:37:56.592Z,3.08
2023-11-06T16:40:25.697Z,2.42
2023-11-06T16:42:54.884Z,2.97
2023-11-06T16:45:25.444Z,3.05
2023-11-06T16:47:55.624Z,4.63
2023-11-06T16:50:27.545Z,3.75
2023-11-06T16:52:56.758Z,3.55
2023-11-06T16:55:26.079Z,2.60
2023-11-06T16:57:55.246Z,2.15
2023-11-06T17:00:27.320Z,2.92
2023-11-06T17:02:59.405Z,1.80
2023-11-06T17:05:28.668Z,4.22
2023-11-06T17:07:57.896Z,6.68
2023-11-06T17:10:27.082Z,11.18
2023-11-06T17:12:57.105Z,5.60
2023-11-06T17:15:28.808Z,4.35
2023-11-06T17:17:57.994Z,5.47
2023-11-06T17:20:27.323Z,4.55
2023-11-06T17:22:56.704Z,5.63
2023-11-06T17:25:26.114Z,4.75
2023-11-06T17:27:57.861Z,7.03
2023-11-06T17:30:28.418Z,6.10
2023-11-06T17:32:58.048Z,6.13
2023-11-06T17:35:27.774Z,3.97
2023-11-06T17:37:57.135Z,4.80
2023-11-06T17:40:26.308Z,4.47
2023-11-06T17:42:55.588Z,4.07
2023-11-06T17:45:24.778Z,2.35
2023-11-06T17:47:56.908Z,4.20
2023-11-06T17:50:26.233Z,4.93
2023-11-06T17:52:55.509Z,5.22
2023-11-06T17:55:24.887Z,4.45
2023-11-06T17:57:54.363Z,6.15
2023-11-06T18:00:24.236Z,3.92
2023-11-06T18:02:55.595Z,4.43
2023-11-06T18:05:24.972Z,4.97
2023-11-06T18:07:54.194Z,5.75
2023-11-06T18:10:23.647Z,5.07
2023-11-06T18:12:52.765Z,4.47
2023-11-06T18:15:21.915Z,3.80
2023-11-06T18:17:51.151Z,4.00
2023-11-06T18:20:22.162Z,3.80
2023-11-06T18:22:51.504Z,3.75
2023-11-06T18:25:21.233Z,3.08
2023-11-06T18:27:51.221Z,3.60
2023-11-06T18:30:20.486Z,2.88
2023-11-06T18:32:50.377Z,3.70
2023-11-06T18:35:21.767Z,3.05
2023-11-06T18:37:51.265Z,3.80
2023-11-06T18:40:20.504Z,3.40
2023-11-06T18:42:49.803Z,5.30
2023-11-06T18:45:19.022Z,4.50
2023-11-06T18:47:48.277Z,4.10
2023-11-06T18:50:17.591Z,3.97
2023-11-06T18:52:49.217Z,3.33
2023-11-06T18:55:19.864Z,4.57
2023-11-06T18:57:51.030Z,5.22
2023-11-06T19:00:22.151Z,5.07
2023-11-06T19:02:51.471Z,4.82
2023-11-06T19:05:21.328Z,5.22
2023-11-06T19:07:54.280Z,5.32
2023-11-06T19:10:23.580Z,5.53
2023-11-06T19:12:53.780Z,4.03
2023-11-06T19:15:23.448Z,4.07
2023-11-06T19:17:53.175Z,5.65
2023-11-06T19:20:23.231Z,4.15
2023-11-06T19:22:53.830Z,5.38
2023-11-06T19:25:23.216Z,3.53
2023-11-06T19:27:52.376Z,3.55
2023-11-06T19:30:21.981Z,3.35
2023-11-06T19:32:51.457Z,3.05
2023-11-06T19:35:20.951Z,5.35
2023-11-06T19:37:50.266Z,4.03
2023-11-06T19:40:21.155Z,4.43
2023-11-06T19:42:51.891Z,7.13
2023-11-06T19:45:21.330Z,5.75
2023-11-06T19:47:50.565Z,5.03
2023-11-06T19:50:20.155Z,4.35
2023-11-06T19:52:50.841Z,4.40
2023-11-06T19:55:22.447Z,4.38
2023-11-06T19:57:52.356Z,4.93
2023-11-06T20:00:22.152Z,4.28
2023-11-06T20:02:52.735Z,4.60
2023-11-06T20:05:22.296Z,4.22
2023-11-06T20:07:51.518Z,4.72
2023-11-06T20:10:22.594Z,6.05
2023-11-06T20:12:54.161Z,5.10
2023-11-06T20:15:24.259Z,3.70
2023-11-06T20:17:54.835Z,3.70
2023-11-06T20:20:24.105Z,4.22
2023-11-06T20:22:54.025Z,3.33
2023-11-06T20:25:24.719Z,3.28
2023-11-06T20:27:54.137Z,3.85
2023-11-06T20:30:23.281Z,5.43
2023-11-06T20:32:52.570Z,4.75
2023-11-06T20:35:21.867Z,6.15
2023-11-06T20:37:51.038Z,4.93
2023-11-06T20:40:20.324Z,3.83
2023-11-06T20:42:51.160Z,5.45
2023-11-06T20:45:20.696Z,4.05
2023-11-06T20:47:49.998Z,9.88
2023-11-06T20:50:19.305Z,7.13
2023-11-06T20:52:49.115Z,6.50
2023-11-06T20:55:18.477Z,7.97
2023-11-06T20:57:47.881Z,4.78
2023-11-06T21:00:20.425Z,5.45
2023-11-06T21:02:50.356Z,5.68
2023-11-06T21:05:21.968Z,5.55
2023-11-06T21:07:51.720Z,5.68
2023-11-06T21:10:20.920Z,6.47
2023-11-06T21:12:50.317Z,3.95
2023-11-06T21:15:21.145Z,6.38
2023-11-06T21:17:50.486Z,6.22
2023-11-06T21:20:20.015Z,5.80
2023-11-06T21:22:49.215Z,5.63
2023-11-06T21:25:20.344Z,4.63
2023-11-06T21:27:49.560Z,5.50
2023-11-06T21:30:21.432Z,8.27
2023-11-06T21:32:52.247Z,4.55
2023-11-06T21:35:21.669Z,6.00
2023-11-06T21:37:52.255Z,3.72
2023-11-06T21:40:21.538Z,4.15
2023-11-06T21:42:50.760Z,5.03
2023-11-06T21:45:21.647Z,4.40
2023-11-06T21:47:50.836Z,4.32
2023-11-06T21:50:20.096Z,3.65
2023-11-06T21:52:49.217Z,3.53
2023-11-06T21:55:19.447Z,4.07
2023-11-06T21:57:50.328Z,3.15
2023-11-06T22:00:21.592Z,2.92
2023-11-06T22:02:50.883Z,2.88
2023-11-06T22:05:22.171Z,3.78
2023-11-06T22:07:51.709Z,3.40
2023-11-06T22:10:25.426Z,2.92
2023-11-06T22:12:55.898Z,3.03
2023-11-06T22:15:26.665Z,3.17
2023-11-06T22:18:01.450Z,4.03
2023-11-06T22:20:31.657Z,3.05
2023-11-06T22:23:02.315Z,3.10
2023-11-06T22:25:31.647Z,3.33
2023-11-06T22:28:00.934Z,3.13
2023-11-06T22:30:31.516Z,3.47
2023-11-06T22:33:00.817Z,4.25
2023-11-06T22:35:30.587Z,4.75
2023-11-06T22:37:59.968Z,3.22
2023-11-06T22:40:29.341Z,3.03
2023-11-06T22:42:58.522Z,3.38
2023-11-06T22:45:27.802Z,3.20
2023-11-06T22:47:58.565Z,3.67
2023-11-06T22:50:27.862Z,3.30
2023-11-06T22:52:57.049Z,3.42
2023-11-06T22:55:26.334Z,4.00
2023-11-06T22:57:55.733Z,4.00
2023-11-06T23:00:28.750Z,2.70
2023-11-06T23:03:00.095Z,2.70
2023-11-06T23:05:29.452Z,2.85
2023-11-06T23:07:59.015Z,2.85
2023-11-06T23:10:28.317Z,2.60
2023-11-06T23:12:57.511Z,2.33
2023-11-06T23:15:26.945Z,2.90
2023-11-06T23:17:56.385Z,3.20
2023-11-06T23:20:27.518Z,2.08
2023-11-06T23:22:57.484Z,2.75
2023-11-06T23:25:33.555Z,3.50
2023-11-06T23:28:09.784Z,3.20
2023-11-06T23:30:39.675Z,3.00
2023-11-06T23:33:09.379Z,2.20
2023-11-06T23:35:40.307Z,2.10
2023-11-06T23:38:09.891Z,2.33
2023-11-06T23:40:39.089Z,3.00
2023-11-06T23:43:08.673Z,3.45
2023-11-06T23:45:37.853Z,2.60
2023-11-06T23:48:08.899Z,2.70
2023-11-06T23:50:39.835Z,3.00
2023-11-06T23:53:09.392Z,4.60
2023-11-06T23:55:38.587Z,3.78
2023-11-06T23:58:07.813Z,4.43
